Wednesday, September 24, 2014
04:33 UTC
  |  Log In   |  Register Free
Airport Search:

Seattle-Tacoma International Airport
(KSEA)

FAA data valid effective September 18, 2014 - November 13, 2014 (unless otherwise noted).

 
 
 
 
 
 
 
 
 
 
 
 
 
 

Current Aviation Weather for Seattle-Tacoma International Airport (KSEA)

The most recent METAR observation for KSEA was updated at: 0420
METAR Summary (Translated METAR)
KSEA
240353Z 10005KT 4SM RA BR SCT025 BKN048 OVC070 17/15 A2976 RMK AO2 SLP084 P0008 T01670150
KRNT
240402Z AUTO 00000KT 4SM -RA BR FEW033 BKN050 OVC070 17/17 A2974 RMK AO2 P0002 T01670167
(4.6 nm NE from KSEA)
KBFI
240353Z 09004KT 4SM -RA BR FEW035 BKN055 OVC075 18/16 A2975 RMK AO2 SLP074 P0000 T01830156
(4.9 nm NE from KSEA)
TAF Summary (Translated TAF)
KSEA
240301Z 2403/2506 13008KT 6SM -RA BR SCT025 OVC040 TEMPO 2403/2406 4SM RA BR FEW012 OVC025 FM240600 16008KT 4SM -RA BR SCT012 OVC025 FM241200 20010G18KT 5SM -SHRA BR SCT012 BKN025 OVC035 FM241800 21008KT P6SM SCT030 BKN045
KBFI
(4.9 nm NE from KSEA)
240304Z 2403/2424 12006KT 6SM -RA BR SCT028 OVC040 TEMPO 2403/2406 5SM RA BR FEW015 OVC028 FM240600 12006KT 5SM -RA BR SCT015 OVC028 FM241200 18008KT 5SM -SHRA BR SCT015 BKN025 OVC035 FM241800 19006KT P6SM SCT030 BKN045
  Airport Weather Conditions for KSEA

 Current Weather at SEA
62° F
Rain Fog/Mist
East winds at 5.8 mph
SEA NOAA Radar

Pressure: 29.76 in
Humidity: 90%
Wind: East at 5.8 MPH (5 KT)
Dew Point: 59.0°F
Visibility: 4.00 mi


Airport Weather Forecast for KSEA

Translated METAR and TAF for KSEA
Translated METAR for KSEA (0428 UTC 24 September 2014)
found at http://aviationweather.gov/adds/metars/
 
METAR text: KSEA 240353Z 10005KT 4SM RA BR SCT025 BKN048 OVC070 17/15 A2976 RMK AO2 SLP084 P0008 T01670150
Conditions at: KSEA (SEATTLE/METRO , WA, US) observed 0353 UTC 24 September 2014
Temperature: 16.7°C (62°F)
Dewpoint: 15.0°C (59°F) [RH = 90%]
Pressure (altimeter): 29.76 inches Hg (1007.9 mb)
[Sea-level pressure: 1008.4 mb]
Winds: from the E (100 degrees) at 6 MPH (5 knots; 2.6 m/s)
Visibility: 4 miles (6 km)
Ceiling: 4800 feet AGL
Clouds: scattered clouds at 2500 feet AGL
broken clouds at 4800 feet AGL
overcast cloud deck at 7000 feet AGL
Weather: RA BR  (rain, mist)
Translated TAF for KSEA
Forecast for: KSEA (SEATTLE/METRO , WA, US)
TAF Text: KSEA 240301Z 2403/2506 13008KT 6SM -RA BR SCT025 OVC040
Forecast period: 0300 to 0600 UTC 24 September 2014
Forecast type: FROM: standard forecast or significant change
Winds: from the SE (130 degrees) at 9 MPH (8 knots; 4.2 m/s)
Visibility: 6 miles (10 km)
Ceiling: 4000 feet AGL
Clouds: scattered clouds at 2500 feet AGL
overcast cloud deck at 4000 feet AGL
Weather: -RA BR  (light rain, mist)
TAF Text: TEMPO 2403/2406 4SM RA BR FEW012 OVC025
Forecast period: 0300 to 0600 UTC 24 September 2014
Forecast type: TEMPORARY: The following changes expected for less than half the time period
Visibility: 4 miles (6 km)
Ceiling: 2500 feet AGL
Clouds: few clouds at 1200 feet AGL
overcast cloud deck at 2500 feet AGL
Weather: RA BR  (rain, mist)
TAF Text: FM240600 16008KT 4SM -RA BR SCT012 OVC025
Forecast period: 0600 to 1200 UTC 24 September 2014
Forecast type: FROM: standard forecast or significant change
Winds: from the SSE (160 degrees) at 9 MPH (8 knots; 4.2 m/s)
Visibility: 4 miles (6 km)
Ceiling: 2500 feet AGL
Clouds: scattered clouds at 1200 feet AGL
overcast cloud deck at 2500 feet AGL
Weather: -RA BR  (light rain, mist)
TAF Text: FM241200 20010G18KT 5SM -SHRA BR SCT012 BKN025 OVC035
Forecast period: 1200 to 1800 UTC 24 September 2014
Forecast type: FROM: standard forecast or significant change
Winds: from the SSW (200 degrees) at 12 MPH (10 knots; 5.2 m/s)
gusting to 21 MPH (18 knots; 9.4 m/s)
Visibility: 5 miles (8 km)
Ceiling: 2500 feet AGL
Clouds: scattered clouds at 1200 feet AGL
broken clouds at 2500 feet AGL
overcast cloud deck at 3500 feet AGL
Weather: -SHRA BR  (light rain showers, mist)
TAF Text: FM241800 21008KT P6SM SCT030 BKN045
Forecast period: 1800 UTC 24 September 2014 to 0600 UTC 25 September 2014
Forecast type: FROM: standard forecast or significant change
Winds: from the SSW (210 degrees) at 9 MPH (8 knots; 4.2 m/s)
Visibility: 6 or more miles (10+ km)
Ceiling: 4500 feet AGL
Clouds: scattered clouds at 3000 feet AGL
broken clouds at 4500 feet AGL
Weather: no significant weather forecast for this period

Find All Airport Services Find A Hotel Find A Rental Car Find A Golf Course Find A Restaurant $100 Hamburger



FBO's on the Field
FBO Company Facility Photos Services Transportation Aviation Fuel Prices: Prices include tax
Catering Weather Repair Courtesy Rental Type 100LL JetA JetA+ MOGAS 8087
 
Aircraft Service Intl.

This FBO has not yet been rated
FS:Avfuel
Last Updated: Aug-28
Login to update fuel prices
SS:
Contact Aircraft Service Intl.More FBO Information
 
Add another FBO Facility Photos Catering Weather Repair Courtesy Rental Type 100LL JetA JetA+ MOGAS 8087
Services Transportation Aviation Fuel Prices: Prices include tax


model-print
model-print
model-print
model-print